Time,TemperatureF,DewpointF,PressureIn,WindDirection,WindDirectionDegrees,WindSpeedMPH,WindSpeedGustMPH,Humidity,HourlyPrecipIn,Conditions,Clouds,dailyrainin,SolarRadiationWatts/m^2,SoftwareType,DateUTC
2013-01-21 00:02:00,41.0,37.0,-100.00,SE,125,2.0,4.0,86,0.00,,,0.00,0.000000,,2013-01-21 08:02:00,
2013-01-21 00:12:00,41.0,37.0,-100.00,SE,125,2.0,4.0,86,0.00,,,0.00,0.000000,,2013-01-21 08:12:00,
2013-01-21 00:43:00,40.0,36.0,-100.00,SE,130,2.0,4.0,84,0.00,,,0.00,0.000000,,2013-01-21 08:43:00,
2013-01-21 00:53:00,40.0,36.0,-100.00,SE,130,2.0,4.0,84,0.00,,,0.00,0.000000,,2013-01-21 08:53:00,
2013-01-21 01:02:00,40.0,36.0,-100.00,SE,130,2.0,4.0,84,0.00,,,0.00,0.000000,,2013-01-21 09:02:00,
2013-01-21 01:12:00,40.0,36.0,-100.00,SE,130,2.0,4.0,84,0.00,,,0.00,0.000000,,2013-01-21 09:12:00,
2013-01-21 01:43:00,38.0,34.0,-100.00,SE,124,2.0,4.0,85,0.00,,,0.00,0.000000,,2013-01-21 09:43:00,
2013-01-21 01:53:00,38.0,34.0,-100.00,SE,124,2.0,4.0,85,0.00,,,0.00,0.000000,,2013-01-21 09:53:00,
2013-01-21 02:02:00,38.0,34.0,-100.00,SE,124,2.0,4.0,85,0.00,,,0.00,0.000000,,2013-01-21 10:02:00,
2013-01-21 02:12:00,38.0,34.0,-100.00,SE,124,2.0,4.0,85,0.00,,,0.00,0.000000,,2013-01-21 10:12:00,
2013-01-21 02:33:00,38.0,32.0,-100.00,SE,133,2.0,5.0,80,0.00,,,0.00,0.000000,,2013-01-21 10:33:00,
2013-01-21 02:43:00,38.0,32.0,-100.00,SE,133,2.0,5.0,80,0.00,,,0.00,0.000000,,2013-01-21 10:43:00,
2013-01-21 02:52:00,38.0,32.0,-100.00,SE,133,2.0,5.0,80,0.00,,,0.00,0.000000,,2013-01-21 10:52:00,
2013-01-21 03:02:00,38.0,32.0,-100.00,SE,133,2.0,5.0,80,0.00,,,0.00,0.000000,,2013-01-21 11:02:00,
2013-01-21 03:11:00,38.0,32.0,-100.00,SE,133,2.0,5.0,80,0.00,,,0.00,0.000000,,2013-01-21 11:11:00,
2013-01-21 03:33:00,38.0,32.0,-100.00,SE,127,2.0,5.0,79,0.01,,,0.01,0.000000,,2013-01-21 11:33:00,
2013-01-21 03:43:00,38.0,32.0,-100.00,SE,127,2.0,5.0,79,0.01,,,0.01,0.000000,,2013-01-21 11:43:00,
2013-01-21 03:53:00,38.0,32.0,-100.00,SE,127,2.0,5.0,79,0.01,,,0.01,0.000000,,2013-01-21 11:53:00,
2013-01-21 04:02:00,38.0,32.0,-100.00,SE,127,2.0,5.0,79,0.01,,,0.01,0.000000,,2013-01-21 12:02:00,
2013-01-21 04:12:00,38.0,32.0,-100.00,SE,127,2.0,5.0,79,0.01,,,0.01,0.000000,,2013-01-21 12:12:00,
2013-01-21 04:43:00,35.0,31.0,-100.00,ESE,117,3.0,4.0,84,0.00,,,0.01,0.000000,,2013-01-21 12:43:00,
2013-01-21 04:53:00,35.0,31.0,-100.00,ESE,117,3.0,4.0,84,0.00,,,0.01,0.000000,,2013-01-21 12:53:00,
2013-01-21 05:02:00,35.0,31.0,-100.00,ESE,117,3.0,4.0,84,0.00,,,0.01,0.000000,,2013-01-21 13:02:00,
2013-01-21 05:12:00,35.0,31.0,-100.00,ESE,117,3.0,4.0,84,0.00,,,0.01,0.000000,,2013-01-21 13:12:00,
2013-01-21 05:33:00,33.0,30.0,-100.00,ESE,104,2.0,5.0,87,0.00,,,0.01,0.000000,,2013-01-21 13:33:00,
2013-01-21 05:43:00,33.0,30.0,-100.00,ESE,104,2.0,5.0,87,0.00,,,0.01,0.000000,,2013-01-21 13:43:00,
2013-01-21 05:53:00,33.0,30.0,-100.00,ESE,104,2.0,5.0,87,0.00,,,0.01,0.000000,,2013-01-21 13:53:00,
2013-01-21 06:03:00,33.0,30.0,-100.00,ESE,104,2.0,5.0,87,0.00,,,0.01,0.000000,,2013-01-21 14:03:00,
2013-01-21 06:12:00,33.0,30.0,-100.00,ESE,104,2.0,5.0,87,0.00,,,0.01,0.000000,,2013-01-21 14:12:00,
2013-01-21 06:33:00,36.0,28.0,-100.00,South,182,2.0,5.0,73,0.00,,,-99.99,0.000000,,2013-01-21 14:33:00,
2013-01-21 06:43:00,36.0,28.0,-100.00,South,182,2.0,5.0,73,0.00,,,-99.99,0.000000,,2013-01-21 14:43:00,
2013-01-21 06:53:00,36.0,28.0,-100.00,South,182,2.0,5.0,73,0.00,,,-99.99,0.000000,,2013-01-21 14:53:00,
2013-01-21 07:03:00,36.0,28.0,-100.00,South,182,2.0,5.0,73,0.00,,,-99.99,0.000000,,2013-01-21 15:03:00,
2013-01-21 07:12:00,36.0,28.0,-100.00,South,182,2.0,5.0,73,0.00,,,-99.99,0.000000,,2013-01-21 15:12:00,
2013-01-21 07:33:00,30.0,28.0,-100.00,SE,144,1.0,2.0,92,0.00,,,0.01,0.000000,,2013-01-21 15:33:00,
2013-01-21 07:43:00,30.0,28.0,-100.00,SE,144,1.0,2.0,92,0.00,,,0.01,0.000000,,2013-01-21 15:43:00,
2013-01-21 07:53:00,30.0,28.0,-100.00,SE,144,1.0,2.0,92,0.00,,,0.01,0.000000,,2013-01-21 15:53:00,
2013-01-21 08:03:00,30.0,28.0,-100.00,SE,144,1.0,2.0,92,0.00,,,0.01,0.000000,,2013-01-21 16:03:00,
2013-01-21 08:11:00,30.0,28.0,-100.00,SE,144,1.0,2.0,92,0.00,,,0.01,0.000000,,2013-01-21 16:11:00,
2013-01-21 08:33:00,33.0,29.0,-100.00,SE,126,2.0,3.0,85,0.00,,,0.01,6.000000,,2013-01-21 16:33:00,
2013-01-21 08:43:00,33.0,29.0,-100.00,SE,126,2.0,3.0,85,0.00,,,0.01,6.000000,,2013-01-21 16:43:00,
2013-01-21 08:53:00,33.0,29.0,-100.00,SE,126,2.0,3.0,85,0.00,,,0.01,6.000000,,2013-01-21 16:53:00,
2013-01-21 09:02:00,33.0,29.0,-100.00,SE,126,2.0,3.0,85,0.00,,,0.01,6.000000,,2013-01-21 17:02:00,
2013-01-21 09:12:00,33.0,29.0,-100.00,SE,126,2.0,3.0,85,0.00,,,0.01,6.000000,,2013-01-21 17:12:00,
2013-01-21 09:33:00,40.0,29.0,-100.00,SSE,159,2.0,4.0,64,0.00,,,-99.99,25.000000,,2013-01-21 17:33:00,
2013-01-21 09:43:00,40.0,29.0,-100.00,SSE,159,2.0,4.0,64,0.00,,,-99.99,25.000000,,2013-01-21 17:43:00,
2013-01-21 09:53:00,40.0,29.0,-100.00,SSE,159,2.0,4.0,64,0.00,,,-99.99,25.000000,,2013-01-21 17:53:00,
2013-01-21 10:02:00,40.0,29.0,-100.00,SSE,159,2.0,4.0,64,0.00,,,-99.99,25.000000,,2013-01-21 18:02:00,
2013-01-21 10:11:00,40.0,29.0,-100.00,SSE,159,2.0,4.0,64,0.00,,,-99.99,25.000000,,2013-01-21 18:11:00,
2013-01-21 10:33:00,48.0,30.0,-100.00,South,175,3.0,4.0,49,0.00,,,0.01,310.000000,,2013-01-21 18:33:00,
2013-01-21 11:33:00,55.0,31.0,-100.00,SSE,151,2.0,4.0,40,0.00,,,0.01,469.000000,,2013-01-21 19:33:00,
2013-01-21 13:33:00,61.0,31.0,-100.00,WSW,253,2.0,4.0,32,-99.99,,,0.01,539.000000,,2013-01-21 21:33:00,
2013-01-21 14:33:00,63.0,33.0,-100.00,East,99,2.0,3.0,33,0.00,,,-99.99,458.000000,,2013-01-21 22:33:00,
2013-01-21 14:43:00,63.0,33.0,-100.00,East,99,2.0,3.0,33,0.00,,,-99.99,458.000000,,2013-01-21 22:43:00,
2013-01-21 14:53:00,63.0,33.0,-100.00,East,99,2.0,3.0,33,0.00,,,-99.99,458.000000,,2013-01-21 22:53:00,
2013-01-21 15:33:00,62.0,27.0,-100.00,East,85,2.0,4.0,26,0.00,,,0.01,342.000000,,2013-01-21 23:33:00,
2013-01-21 16:33:00,59.0,36.0,-100.00,SW,230,2.0,3.0,42,-99.99,,,0.01,212.000000,,2013-01-22 00:33:00,
2013-01-21 16:43:00,59.0,36.0,-100.00,SW,230,2.0,3.0,42,-99.99,,,0.01,212.000000,,2013-01-22 00:43:00,
2013-01-21 16:53:00,59.0,36.0,-100.00,SW,230,2.0,3.0,42,-99.99,,,0.01,212.000000,,2013-01-22 00:53:00,
2013-01-21 17:02:00,59.0,36.0,-100.00,SW,230,2.0,3.0,42,-99.99,,,0.01,212.000000,,2013-01-22 01:02:00,
2013-01-21 17:12:00,59.0,36.0,-100.00,SW,230,2.0,3.0,42,-99.99,,,0.01,212.000000,,2013-01-22 01:12:00,
2013-01-21 18:33:00,45.0,29.0,-100.00,East,98,1.0,2.0,54,-99.99,,,0.01,1.000000,,2013-01-22 02:33:00,
2013-01-21 19:42:00,45.0,28.0,-100.00,SE,138,2.0,3.0,52,0.00,,,0.01,0.000000,,2013-01-22 03:42:00,
2013-01-21 19:52:00,45.0,28.0,-100.00,SE,138,2.0,3.0,52,0.00,,,0.01,0.000000,,2013-01-22 03:52:00,
2013-01-21 20:33:00,46.0,33.0,-100.00,ESE,111,2.0,4.0,60,0.00,,,0.01,0.000000,,2013-01-22 04:33:00,
2013-01-21 20:42:00,46.0,33.0,-100.00,ESE,111,2.0,4.0,60,0.00,,,0.01,0.000000,,2013-01-22 04:42:00,
2013-01-21 20:52:00,46.0,33.0,-100.00,ESE,111,2.0,4.0,60,0.00,,,0.01,0.000000,,2013-01-22 04:52:00,
2013-01-21 21:03:00,46.0,33.0,-100.00,ESE,111,2.0,4.0,60,0.00,,,0.01,0.000000,,2013-01-22 05:03:00,
2013-01-21 21:12:00,46.0,33.0,-100.00,ESE,111,2.0,4.0,60,0.00,,,0.01,0.000000,,2013-01-22 05:12:00,
2013-01-21 21:33:00,45.0,35.0,-100.00,ESE,105,2.0,4.0,67,0.00,,,-99.99,0.000000,,2013-01-22 05:33:00,
2013-01-21 21:43:00,45.0,35.0,-100.00,ESE,105,2.0,4.0,67,0.00,,,-99.99,0.000000,,2013-01-22 05:43:00,
2013-01-21 21:53:00,45.0,35.0,-100.00,ESE,105,2.0,4.0,67,0.00,,,-99.99,0.000000,,2013-01-22 05:53:00,
2013-01-21 22:02:00,45.0,35.0,-100.00,ESE,105,2.0,4.0,67,0.00,,,-99.99,0.000000,,2013-01-22 06:02:00,
2013-01-21 22:11:00,45.0,35.0,-100.00,ESE,105,2.0,4.0,67,0.00,,,-99.99,0.000000,,2013-01-22 06:11:00,
2013-01-21 22:33:00,43.0,36.0,-100.00,ESE,115,3.0,4.0,76,0.00,,,0.01,0.000000,,2013-01-22 06:33:00,
2013-01-21 22:43:00,43.0,36.0,-100.00,ESE,115,3.0,4.0,76,0.00,,,0.01,0.000000,,2013-01-22 06:43:00,
2013-01-21 22:52:00,43.0,36.0,-100.00,ESE,115,3.0,4.0,76,0.00,,,0.01,0.000000,,2013-01-22 06:52:00,
2013-01-21 23:02:00,43.0,36.0,-100.00,ESE,115,3.0,4.0,76,0.00,,,0.01,0.000000,,2013-01-22 07:02:00,
2013-01-21 23:11:00,43.0,36.0,-100.00,ESE,115,3.0,4.0,76,0.00,,,0.01,0.000000,,2013-01-22 07:11:00,
2013-01-21 23:33:00,45.0,35.0,-100.00,ESE,122,3.0,5.0,69,0.00,,,0.01,0.000000,,2013-01-22 07:33:00,
2013-01-21 23:42:00,45.0,35.0,-100.00,ESE,122,3.0,5.0,69,0.00,,,0.01,0.000000,,2013-01-22 07:42:00,
2013-01-21 23:52:00,45.0,35.0,-100.00,ESE,122,3.0,5.0,69,0.00,,,0.01,0.000000,,2013-01-22 07:52:00,